sensor_id;sensor_type;location;lat;lon;timestamp;P1;durP1;ratioP1;P2;durP2;ratioP2
48685;SDS011;34485;51.536;3.816;2022-10-13T00:01:53;14.97;;;8.10;;
48685;SDS011;34485;51.536;3.816;2022-10-13T00:04:18;15.98;;;8.98;;
48685;SDS011;34485;51.536;3.816;2022-10-13T00:06:44;18.47;;;10.30;;
48685;SDS011;34485;51.536;3.816;2022-10-13T00:09:10;13.77;;;9.95;;
48685;SDS011;34485;51.536;3.816;2022-10-13T00:11:35;14.30;;;9.40;;
48685;SDS011;34485;51.536;3.816;2022-10-13T00:14:01;16.83;;;10.10;;
48685;SDS011;34485;51.536;3.816;2022-10-13T00:16:28;19.70;;;9.13;;
48685;SDS011;34485;51.536;3.816;2022-10-13T00:18:54;19.67;;;9.80;;
48685;SDS011;34485;51.536;3.816;2022-10-13T00:21:21;16.50;;;9.57;;
48685;SDS011;34485;51.536;3.816;2022-10-13T00:23:49;19.58;;;10.30;;
48685;SDS011;34485;51.536;3.816;2022-10-13T00:26:16;13.53;;;9.20;;
48685;SDS011;34485;51.536;3.816;2022-10-13T00:28:42;15.98;;;9.25;;
48685;SDS011;34485;51.536;3.816;2022-10-13T00:31:40;17.38;;;9.60;;
48685;SDS011;34485;51.536;3.816;2022-10-13T00:33:59;18.67;;;10.82;;
48685;SDS011;34485;51.536;3.816;2022-10-13T00:36:26;17.30;;;9.17;;
48685;SDS011;34485;51.536;3.816;2022-10-13T00:38:52;14.63;;;9.13;;
48685;SDS011;34485;51.536;3.816;2022-10-13T00:41:18;18.00;;;9.77;;
48685;SDS011;34485;51.536;3.816;2022-10-13T00:44:04;21.38;;;10.30;;
48685;SDS011;34485;51.536;3.816;2022-10-13T00:46:32;13.50;;;8.85;;
48685;SDS011;34485;51.536;3.816;2022-10-13T00:48:59;14.43;;;9.23;;
48685;SDS011;34485;51.536;3.816;2022-10-13T00:51:41;20.48;;;9.52;;
48685;SDS011;34485;51.536;3.816;2022-10-13T00:54:11;16.52;;;8.70;;
48685;SDS011;34485;51.536;3.816;2022-10-13T00:56:40;13.45;;;9.57;;
48685;SDS011;34485;51.536;3.816;2022-10-13T00:59:12;15.98;;;9.75;;
48685;SDS011;34485;51.536;3.816;2022-10-13T01:01:43;14.43;;;8.37;;
48685;SDS011;34485;51.536;3.816;2022-10-13T01:04:08;17.02;;;9.18;;
48685;SDS011;34485;51.536;3.816;2022-10-13T01:06:34;14.20;;;8.75;;
48685;SDS011;34485;51.536;3.816;2022-10-13T01:09:00;15.10;;;8.13;;
48685;SDS011;34485;51.536;3.816;2022-10-13T01:16:52;17.40;;;9.05;;
48685;SDS011;34485;51.536;3.816;2022-10-13T01:27:55;20.10;;;9.30;;
48685;SDS011;34485;51.536;3.816;2022-10-13T01:30:25;17.75;;;9.30;;
48685;SDS011;34485;51.536;3.816;2022-10-13T01:36:23;21.63;;;10.63;;
48685;SDS011;34485;51.536;3.816;2022-10-13T01:39:13;20.58;;;10.52;;
48685;SDS011;34485;51.536;3.816;2022-10-13T01:41:53;13.93;;;8.32;;
48685;SDS011;34485;51.536;3.816;2022-10-13T01:44:32;22.80;;;9.80;;
48685;SDS011;34485;51.536;3.816;2022-10-13T01:47:01;25.47;;;10.10;;
48685;SDS011;34485;51.536;3.816;2022-10-13T01:49:31;16.08;;;8.65;;
48685;SDS011;34485;51.536;3.816;2022-10-13T01:52:00;15.93;;;8.38;;
48685;SDS011;34485;51.536;3.816;2022-10-13T01:54:28;16.23;;;9.13;;
48685;SDS011;34485;51.536;3.816;2022-10-13T01:56:54;16.95;;;8.80;;
48685;SDS011;34485;51.536;3.816;2022-10-13T01:59:20;19.23;;;8.53;;
48685;SDS011;34485;51.536;3.816;2022-10-13T02:07:23;13.70;;;7.63;;
48685;SDS011;34485;51.536;3.816;2022-10-13T02:10:04;14.00;;;7.80;;
48685;SDS011;34485;51.536;3.816;2022-10-13T02:12:45;16.80;;;8.90;;
48685;SDS011;34485;51.536;3.816;2022-10-13T02:15:16;23.75;;;8.00;;
48685;SDS011;34485;51.536;3.816;2022-10-13T02:17:46;19.45;;;8.50;;
48685;SDS011;34485;51.536;3.816;2022-10-13T02:20:12;20.40;;;8.07;;
48685;SDS011;34485;51.536;3.816;2022-10-13T02:22:41;25.63;;;8.57;;
48685;SDS011;34485;51.536;3.816;2022-10-13T02:25:11;16.85;;;7.85;;
48685;SDS011;34485;51.536;3.816;2022-10-13T02:27:36;16.92;;;8.27;;
48685;SDS011;34485;51.536;3.816;2022-10-13T02:30:02;15.60;;;8.73;;
48685;SDS011;34485;51.536;3.816;2022-10-13T02:32:28;22.33;;;9.05;;
48685;SDS011;34485;51.536;3.816;2022-10-13T02:34:54;21.33;;;8.83;;
48685;SDS011;34485;51.536;3.816;2022-10-13T02:37:20;19.55;;;8.35;;
48685;SDS011;34485;51.536;3.816;2022-10-13T02:39:45;24.13;;;9.63;;
48685;SDS011;34485;51.536;3.816;2022-10-13T02:42:11;22.67;;;9.80;;
48685;SDS011;34485;51.536;3.816;2022-10-13T02:44:36;21.40;;;9.83;;
48685;SDS011;34485;51.536;3.816;2022-10-13T02:47:04;19.55;;;9.40;;
48685;SDS011;34485;51.536;3.816;2022-10-13T02:49:29;15.88;;;9.85;;
48685;SDS011;34485;51.536;3.816;2022-10-13T02:51:55;23.17;;;10.93;;
48685;SDS011;34485;51.536;3.816;2022-10-13T02:54:21;20.83;;;10.27;;
48685;SDS011;34485;51.536;3.816;2022-10-13T02:56:46;18.30;;;9.80;;
48685;SDS011;34485;51.536;3.816;2022-10-13T02:59:12;17.47;;;10.10;;
48685;SDS011;34485;51.536;3.816;2022-10-13T03:01:37;16.83;;;10.80;;
48685;SDS011;34485;51.536;3.816;2022-10-13T03:04:08;21.03;;;9.70;;
48685;SDS011;34485;51.536;3.816;2022-10-13T03:06:34;24.42;;;10.23;;
48685;SDS011;34485;51.536;3.816;2022-10-13T03:09:00;20.73;;;10.73;;
48685;SDS011;34485;51.536;3.816;2022-10-13T03:11:26;25.53;;;11.27;;
48685;SDS011;34485;51.536;3.816;2022-10-13T03:13:51;16.88;;;10.13;;
48685;SDS011;34485;51.536;3.816;2022-10-13T03:16:17;20.97;;;10.67;;
48685;SDS011;34485;51.536;3.816;2022-10-13T03:18:42;18.57;;;10.33;;
48685;SDS011;34485;51.536;3.816;2022-10-13T03:21:08;24.73;;;10.98;;
48685;SDS011;34485;51.536;3.816;2022-10-13T03:23:34;16.77;;;9.57;;
48685;SDS011;34485;51.536;3.816;2022-10-13T03:26:00;19.33;;;9.18;;
48685;SDS011;34485;51.536;3.816;2022-10-13T03:28:25;20.53;;;10.60;;
48685;SDS011;34485;51.536;3.816;2022-10-13T03:31:05;21.52;;;11.52;;
48685;SDS011;34485;51.536;3.816;2022-10-13T03:33:32;24.58;;;10.50;;
48685;SDS011;34485;51.536;3.816;2022-10-13T03:35:58;18.30;;;10.80;;
48685;SDS011;34485;51.536;3.816;2022-10-13T03:38:26;20.43;;;9.87;;
48685;SDS011;34485;51.536;3.816;2022-10-13T03:40:55;22.90;;;10.43;;
48685;SDS011;34485;51.536;3.816;2022-10-13T03:43:21;18.90;;;10.18;;
48685;SDS011;34485;51.536;3.816;2022-10-13T03:46:00;18.73;;;9.90;;
48685;SDS011;34485;51.536;3.816;2022-10-13T03:48:27;18.70;;;9.90;;
48685;SDS011;34485;51.536;3.816;2022-10-13T03:50:54;18.35;;;10.00;;
48685;SDS011;34485;51.536;3.816;2022-10-13T03:53:20;19.67;;;9.38;;
48685;SDS011;34485;51.536;3.816;2022-10-13T03:55:49;20.42;;;9.48;;
48685;SDS011;34485;51.536;3.816;2022-10-13T03:58:20;21.60;;;9.40;;
48685;SDS011;34485;51.536;3.816;2022-10-13T04:00:47;20.20;;;9.45;;
48685;SDS011;34485;51.536;3.816;2022-10-13T04:03:14;24.92;;;9.73;;
48685;SDS011;34485;51.536;3.816;2022-10-13T04:05:40;21.33;;;9.68;;
48685;SDS011;34485;51.536;3.816;2022-10-13T04:08:06;24.02;;;10.40;;
48685;SDS011;34485;51.536;3.816;2022-10-13T04:10:32;17.37;;;8.70;;
48685;SDS011;34485;51.536;3.816;2022-10-13T04:12:58;14.07;;;7.78;;
48685;SDS011;34485;51.536;3.816;2022-10-13T04:15:24;17.80;;;8.43;;
48685;SDS011;34485;51.536;3.816;2022-10-13T04:17:49;20.23;;;8.30;;
48685;SDS011;34485;51.536;3.816;2022-10-13T04:20:15;16.13;;;8.43;;
48685;SDS011;34485;51.536;3.816;2022-10-13T04:22:41;12.13;;;8.73;;
48685;SDS011;34485;51.536;3.816;2022-10-13T04:25:07;16.80;;;8.97;;
48685;SDS011;34485;51.536;3.816;2022-10-13T04:27:32;25.73;;;9.65;;
48685;SDS011;34485;51.536;3.816;2022-10-13T04:30:02;17.20;;;9.07;;
48685;SDS011;34485;51.536;3.816;2022-10-13T04:32:31;24.65;;;9.15;;
48685;SDS011;34485;51.536;3.816;2022-10-13T04:34:56;16.53;;;7.83;;
48685;SDS011;34485;51.536;3.816;2022-10-13T04:37:23;21.55;;;9.13;;
48685;SDS011;34485;51.536;3.816;2022-10-13T04:39:48;17.42;;;8.18;;
48685;SDS011;34485;51.536;3.816;2022-10-13T04:42:14;14.20;;;9.40;;
48685;SDS011;34485;51.536;3.816;2022-10-13T04:44:40;14.70;;;8.68;;
48685;SDS011;34485;51.536;3.816;2022-10-13T04:47:06;22.23;;;10.20;;
48685;SDS011;34485;51.536;3.816;2022-10-13T04:49:31;16.02;;;9.18;;
48685;SDS011;34485;51.536;3.816;2022-10-13T04:51:57;22.63;;;9.07;;
48685;SDS011;34485;51.536;3.816;2022-10-13T04:54:22;17.73;;;10.25;;
48685;SDS011;34485;51.536;3.816;2022-10-13T04:56:48;14.57;;;9.17;;
48685;SDS011;34485;51.536;3.816;2022-10-13T04:59:14;22.53;;;10.60;;
48685;SDS011;34485;51.536;3.816;2022-10-13T05:01:39;21.70;;;9.30;;
48685;SDS011;34485;51.536;3.816;2022-10-13T05:04:06;21.33;;;9.93;;
48685;SDS011;34485;51.536;3.816;2022-10-13T05:06:33;20.80;;;10.17;;
48685;SDS011;34485;51.536;3.816;2022-10-13T05:09:00;19.95;;;10.23;;
48685;SDS011;34485;51.536;3.816;2022-10-13T05:11:28;16.10;;;9.80;;
48685;SDS011;34485;51.536;3.816;2022-10-13T05:13:54;21.83;;;9.50;;
48685;SDS011;34485;51.536;3.816;2022-10-13T05:16:21;19.52;;;10.93;;
48685;SDS011;34485;51.536;3.816;2022-10-13T05:18:48;20.80;;;10.60;;
48685;SDS011;34485;51.536;3.816;2022-10-13T05:21:15;23.15;;;9.48;;
48685;SDS011;34485;51.536;3.816;2022-10-13T05:23:46;18.30;;;9.95;;
48685;SDS011;34485;51.536;3.816;2022-10-13T05:26:13;19.97;;;10.27;;
48685;SDS011;34485;51.536;3.816;2022-10-13T05:28:40;17.23;;;8.70;;
48685;SDS011;34485;51.536;3.816;2022-10-13T05:31:14;21.90;;;9.25;;
48685;SDS011;34485;51.536;3.816;2022-10-13T05:33:45;19.65;;;8.02;;
48685;SDS011;34485;51.536;3.816;2022-10-13T05:36:16;18.00;;;7.55;;
48685;SDS011;34485;51.536;3.816;2022-10-13T05:39:04;15.57;;;6.43;;
48685;SDS011;34485;51.536;3.816;2022-10-13T05:41:31;16.38;;;7.80;;
48685;SDS011;34485;51.536;3.816;2022-10-13T05:44:01;16.13;;;7.53;;
48685;SDS011;34485;51.536;3.816;2022-10-13T05:46:28;25.00;;;8.02;;
48685;SDS011;34485;51.536;3.816;2022-10-13T05:48:54;26.53;;;9.37;;
48685;SDS011;34485;51.536;3.816;2022-10-13T05:51:21;22.83;;;9.25;;
48685;SDS011;34485;51.536;3.816;2022-10-13T05:54:00;16.73;;;7.47;;
48685;SDS011;34485;51.536;3.816;2022-10-13T05:56:31;17.42;;;6.88;;
48685;SDS011;34485;51.536;3.816;2022-10-13T05:59:05;20.80;;;7.65;;
48685;SDS011;34485;51.536;3.816;2022-10-13T06:01:34;12.32;;;7.00;;
48685;SDS011;34485;51.536;3.816;2022-10-13T06:04:04;15.45;;;8.18;;
48685;SDS011;34485;51.536;3.816;2022-10-13T06:06:33;15.43;;;8.27;;
48685;SDS011;34485;51.536;3.816;2022-10-13T06:08:59;16.40;;;9.70;;
48685;SDS011;34485;51.536;3.816;2022-10-13T06:11:25;23.73;;;10.70;;
48685;SDS011;34485;51.536;3.816;2022-10-13T06:13:51;30.63;;;10.77;;
48685;SDS011;34485;51.536;3.816;2022-10-13T06:16:17;22.30;;;10.63;;
48685;SDS011;34485;51.536;3.816;2022-10-13T06:18:42;19.27;;;10.50;;
48685;SDS011;34485;51.536;3.816;2022-10-13T06:21:08;18.73;;;10.33;;
48685;SDS011;34485;51.536;3.816;2022-10-13T06:23:33;19.57;;;10.00;;
48685;SDS011;34485;51.536;3.816;2022-10-13T06:25:59;30.00;;;11.15;;
48685;SDS011;34485;51.536;3.816;2022-10-13T06:28:25;24.27;;;11.97;;
48685;SDS011;34485;51.536;3.816;2022-10-13T06:30:51;31.23;;;12.20;;
48685;SDS011;34485;51.536;3.816;2022-10-13T06:33:21;21.55;;;10.73;;
48685;SDS011;34485;51.536;3.816;2022-10-13T06:35:48;25.05;;;12.48;;
48685;SDS011;34485;51.536;3.816;2022-10-13T06:38:15;17.87;;;12.07;;
48685;SDS011;34485;51.536;3.816;2022-10-13T06:40:41;29.63;;;13.38;;
48685;SDS011;34485;51.536;3.816;2022-10-13T06:43:07;24.42;;;12.10;;
48685;SDS011;34485;51.536;3.816;2022-10-13T06:45:33;23.50;;;11.63;;
48685;SDS011;34485;51.536;3.816;2022-10-13T06:47:58;25.52;;;11.93;;
48685;SDS011;34485;51.536;3.816;2022-10-13T06:50:24;25.07;;;12.40;;
48685;SDS011;34485;51.536;3.816;2022-10-13T06:52:50;22.98;;;12.02;;
48685;SDS011;34485;51.536;3.816;2022-10-13T06:55:15;25.43;;;11.33;;
48685;SDS011;34485;51.536;3.816;2022-10-13T06:57:41;30.08;;;11.40;;
48685;SDS011;34485;51.536;3.816;2022-10-13T07:00:07;26.50;;;11.50;;
48685;SDS011;34485;51.536;3.816;2022-10-13T07:02:33;20.92;;;10.80;;
48685;SDS011;34485;51.536;3.816;2022-10-13T07:04:59;22.63;;;12.57;;
48685;SDS011;34485;51.536;3.816;2022-10-13T07:07:25;24.52;;;11.40;;
48685;SDS011;34485;51.536;3.816;2022-10-13T07:09:50;25.13;;;11.33;;
48685;SDS011;34485;51.536;3.816;2022-10-13T07:12:16;19.97;;;11.37;;
48685;SDS011;34485;51.536;3.816;2022-10-13T07:14:42;22.75;;;11.82;;
48685;SDS011;34485;51.536;3.816;2022-10-13T07:17:07;24.27;;;11.77;;
48685;SDS011;34485;51.536;3.816;2022-10-13T07:19:33;19.40;;;10.90;;
48685;SDS011;34485;51.536;3.816;2022-10-13T07:21:58;19.00;;;11.27;;
48685;SDS011;34485;51.536;3.816;2022-10-13T07:24:24;20.88;;;11.13;;
48685;SDS011;34485;51.536;3.816;2022-10-13T07:26:50;18.67;;;11.37;;
48685;SDS011;34485;51.536;3.816;2022-10-13T07:29:16;25.13;;;11.07;;
48685;SDS011;34485;51.536;3.816;2022-10-13T07:31:42;15.90;;;9.80;;
48685;SDS011;34485;51.536;3.816;2022-10-13T07:34:08;16.40;;;10.03;;
48685;SDS011;34485;51.536;3.816;2022-10-13T07:36:34;21.15;;;10.25;;
48685;SDS011;34485;51.536;3.816;2022-10-13T07:39:02;21.77;;;10.57;;
48685;SDS011;34485;51.536;3.816;2022-10-13T07:41:28;16.80;;;9.07;;
48685;SDS011;34485;51.536;3.816;2022-10-13T07:43:54;14.85;;;9.60;;
48685;SDS011;34485;51.536;3.816;2022-10-13T07:46:20;27.43;;;11.23;;
48685;SDS011;34485;51.536;3.816;2022-10-13T07:48:46;19.48;;;10.02;;
48685;SDS011;34485;51.536;3.816;2022-10-13T07:51:12;20.75;;;9.15;;
48685;SDS011;34485;51.536;3.816;2022-10-13T07:53:38;19.77;;;8.97;;
48685;SDS011;34485;51.536;3.816;2022-10-13T07:56:06;16.37;;;9.33;;
48685;SDS011;34485;51.536;3.816;2022-10-13T07:58:38;13.38;;;8.85;;
48685;SDS011;34485;51.536;3.816;2022-10-13T08:01:04;16.58;;;8.60;;
48685;SDS011;34485;51.536;3.816;2022-10-13T08:03:30;16.02;;;8.65;;
48685;SDS011;34485;51.536;3.816;2022-10-13T08:06:00;23.27;;;8.67;;
48685;SDS011;34485;51.536;3.816;2022-10-13T08:08:27;16.67;;;7.75;;
48685;SDS011;34485;51.536;3.816;2022-10-13T08:10:54;18.45;;;8.27;;
48685;SDS011;34485;51.536;3.816;2022-10-13T08:13:24;16.30;;;6.93;;
48685;SDS011;34485;51.536;3.816;2022-10-13T08:15:50;20.40;;;7.53;;
48685;SDS011;34485;51.536;3.816;2022-10-13T08:18:15;13.82;;;8.18;;
48685;SDS011;34485;51.536;3.816;2022-10-13T08:20:41;14.50;;;6.87;;
48685;SDS011;34485;51.536;3.816;2022-10-13T08:23:08;14.85;;;7.40;;
48685;SDS011;34485;51.536;3.816;2022-10-13T08:25:38;10.27;;;7.75;;
48685;SDS011;34485;51.536;3.816;2022-10-13T08:28:05;16.50;;;8.45;;
48685;SDS011;34485;51.536;3.816;2022-10-13T08:30:31;15.93;;;8.53;;
48685;SDS011;34485;51.536;3.816;2022-10-13T08:32:57;15.43;;;7.88;;
48685;SDS011;34485;51.536;3.816;2022-10-13T08:35:23;14.73;;;8.50;;
48685;SDS011;34485;51.536;3.816;2022-10-13T08:37:48;16.77;;;9.02;;
48685;SDS011;34485;51.536;3.816;2022-10-13T08:40:15;15.20;;;7.77;;
48685;SDS011;34485;51.536;3.816;2022-10-13T08:42:43;21.00;;;8.60;;
48685;SDS011;34485;51.536;3.816;2022-10-13T08:45:14;16.25;;;8.32;;
48685;SDS011;34485;51.536;3.816;2022-10-13T08:47:53;14.20;;;8.80;;
48685;SDS011;34485;51.536;3.816;2022-10-13T08:50:28;13.90;;;7.00;;
48685;SDS011;34485;51.536;3.816;2022-10-13T08:52:58;10.27;;;6.30;;
48685;SDS011;34485;51.536;3.816;2022-10-13T08:57:52;14.00;;;7.70;;
48685;SDS011;34485;51.536;3.816;2022-10-13T09:00:18;15.75;;;7.63;;
48685;SDS011;34485;51.536;3.816;2022-10-13T09:02:43;17.42;;;9.20;;
48685;SDS011;34485;51.536;3.816;2022-10-13T09:05:16;14.17;;;7.70;;
48685;SDS011;34485;51.536;3.816;2022-10-13T09:07:48;14.10;;;10.10;;
48685;SDS011;34485;51.536;3.816;2022-10-13T09:10:17;19.38;;;9.88;;
48685;SDS011;34485;51.536;3.816;2022-10-13T09:12:43;13.80;;;8.07;;
48685;SDS011;34485;51.536;3.816;2022-10-13T09:15:09;16.45;;;9.07;;
48685;SDS011;34485;51.536;3.816;2022-10-13T09:17:38;17.10;;;9.20;;
48685;SDS011;34485;51.536;3.816;2022-10-13T09:22:40;22.48;;;9.35;;
48685;SDS011;34485;51.536;3.816;2022-10-13T09:27:46;19.23;;;8.83;;
48685;SDS011;34485;51.536;3.816;2022-10-13T09:30:35;17.67;;;9.32;;
48685;SDS011;34485;51.536;3.816;2022-10-13T09:36:04;19.25;;;9.32;;
48685;SDS011;34485;51.536;3.816;2022-10-13T09:38:38;15.32;;;9.35;;
48685;SDS011;34485;51.536;3.816;2022-10-13T09:46:17;17.98;;;9.50;;
48685;SDS011;34485;51.536;3.816;2022-10-13T09:48:43;19.27;;;8.90;;
48685;SDS011;34485;51.536;3.816;2022-10-13T09:51:26;18.60;;;10.45;;
48685;SDS011;34485;51.536;3.816;2022-10-13T09:53:54;20.13;;;10.00;;
48685;SDS011;34485;51.536;3.816;2022-10-13T09:56:32;17.20;;;9.10;;
48685;SDS011;34485;51.536;3.816;2022-10-13T09:59:04;24.15;;;10.73;;
48685;SDS011;34485;51.536;3.816;2022-10-13T10:01:44;19.20;;;9.63;;
48685;SDS011;34485;51.536;3.816;2022-10-13T10:04:15;15.57;;;10.02;;
48685;SDS011;34485;51.536;3.816;2022-10-13T10:06:44;16.52;;;10.52;;
48685;SDS011;34485;51.536;3.816;2022-10-13T10:11:45;21.58;;;10.85;;
48685;SDS011;34485;51.536;3.816;2022-10-13T10:14:27;16.40;;;11.53;;
48685;SDS011;34485;51.536;3.816;2022-10-13T10:17:06;21.08;;;10.57;;
48685;SDS011;34485;51.536;3.816;2022-10-13T10:19:50;16.50;;;11.35;;
48685;SDS011;34485;51.536;3.816;2022-10-13T10:22:47;22.85;;;11.98;;
48685;SDS011;34485;51.536;3.816;2022-10-13T10:30:31;25.95;;;12.07;;
48685;SDS011;34485;51.536;3.816;2022-10-13T10:33:11;24.75;;;12.02;;
48685;SDS011;34485;51.536;3.816;2022-10-13T10:44:16;18.23;;;9.60;;
48685;SDS011;34485;51.536;3.816;2022-10-13T10:46:55;15.55;;;10.00;;
48685;SDS011;34485;51.536;3.816;2022-10-13T10:49:30;16.52;;;9.75;;
48685;SDS011;34485;51.536;3.816;2022-10-13T10:51:58;14.23;;;9.55;;
48685;SDS011;34485;51.536;3.816;2022-10-13T11:00:18;14.75;;;9.93;;
48685;SDS011;34485;51.536;3.816;2022-10-13T11:08:40;15.30;;;7.97;;
48685;SDS011;34485;51.536;3.816;2022-10-13T11:13:51;16.45;;;8.20;;
48685;SDS011;34485;51.536;3.816;2022-10-13T11:16:32;12.48;;;7.57;;
48685;SDS011;34485;51.536;3.816;2022-10-13T11:52:12;11.38;;;8.23;;
48685;SDS011;34485;51.536;3.816;2022-10-13T11:54:48;12.57;;;8.73;;
48685;SDS011;34485;51.536;3.816;2022-10-13T11:57:27;11.03;;;9.17;;
48685;SDS011;34485;51.536;3.816;2022-10-13T11:59:54;13.00;;;8.00;;
48685;SDS011;34485;51.536;3.816;2022-10-13T12:02:21;8.70;;;7.50;;
48685;SDS011;34485;51.536;3.816;2022-10-13T12:05:05;11.32;;;8.05;;
48685;SDS011;34485;51.536;3.816;2022-10-13T12:07:32;11.18;;;9.07;;
48685;SDS011;34485;51.536;3.816;2022-10-13T12:10:02;11.50;;;8.47;;
48685;SDS011;34485;51.536;3.816;2022-10-13T12:12:31;12.30;;;8.35;;
48685;SDS011;34485;51.536;3.816;2022-10-13T12:14:56;13.20;;;9.57;;
48685;SDS011;34485;51.536;3.816;2022-10-13T12:19:54;8.80;;;7.35;;
48685;SDS011;34485;51.536;3.816;2022-10-13T12:22:22;11.65;;;7.40;;
48685;SDS011;34485;51.536;3.816;2022-10-13T12:24:55;10.50;;;7.57;;
48685;SDS011;34485;51.536;3.816;2022-10-13T12:27:22;14.15;;;8.68;;
48685;SDS011;34485;51.536;3.816;2022-10-13T12:29:48;10.63;;;7.40;;
48685;SDS011;34485;51.536;3.816;2022-10-13T12:32:17;12.95;;;7.75;;
48685;SDS011;34485;51.536;3.816;2022-10-13T12:34:44;9.87;;;6.83;;
48685;SDS011;34485;51.536;3.816;2022-10-13T12:37:15;12.30;;;8.25;;
48685;SDS011;34485;51.536;3.816;2022-10-13T12:39:57;9.40;;;6.63;;
48685;SDS011;34485;51.536;3.816;2022-10-13T12:42:28;12.32;;;7.28;;
48685;SDS011;34485;51.536;3.816;2022-10-13T12:44:56;10.87;;;7.90;;
48685;SDS011;34485;51.536;3.816;2022-10-13T12:52:52;2.40;;;1.65;;
48685;SDS011;34485;51.536;3.816;2022-10-13T12:55:20;2.10;;;1.80;;
48685;SDS011;34485;51.536;3.816;2022-10-13T12:57:48;2.73;;;1.97;;
48685;SDS011;34485;51.536;3.816;2022-10-13T13:02:49;1.98;;;1.88;;
48685;SDS011;34485;51.536;3.816;2022-10-13T13:08:18;3.10;;;2.28;;
48685;SDS011;34485;51.536;3.816;2022-10-13T13:13:22;2.13;;;1.92;;
48685;SDS011;34485;51.536;3.816;2022-10-13T13:15:49;3.10;;;1.23;;
48685;SDS011;34485;51.536;3.816;2022-10-13T13:18:35;2.42;;;1.25;;
48685;SDS011;34485;51.536;3.816;2022-10-13T13:21:13;1.90;;;1.43;;
48685;SDS011;34485;51.536;3.816;2022-10-13T13:23:41;1.45;;;1.35;;
48685;SDS011;34485;51.536;3.816;2022-10-13T13:26:14;2.75;;;2.10;;
48685;SDS011;34485;51.536;3.816;2022-10-13T13:29:02;1.48;;;1.40;;
48685;SDS011;34485;51.536;3.816;2022-10-13T13:31:27;1.98;;;1.80;;
48685;SDS011;34485;51.536;3.816;2022-10-13T13:33:52;2.20;;;2.00;;
48685;SDS011;34485;51.536;3.816;2022-10-13T13:36:19;1.95;;;1.33;;
48685;SDS011;34485;51.536;3.816;2022-10-13T13:38:49;3.50;;;1.70;;
48685;SDS011;34485;51.536;3.816;2022-10-13T13:41:15;1.53;;;1.43;;
48685;SDS011;34485;51.536;3.816;2022-10-13T13:43:41;2.88;;;1.40;;
48685;SDS011;34485;51.536;3.816;2022-10-13T13:46:14;1.80;;;1.58;;
48685;SDS011;34485;51.536;3.816;2022-10-13T13:48:43;4.82;;;1.33;;
48685;SDS011;34485;51.536;3.816;2022-10-13T13:51:09;2.17;;;2.07;;
48685;SDS011;34485;51.536;3.816;2022-10-13T13:53:35;2.10;;;1.98;;
48685;SDS011;34485;51.536;3.816;2022-10-13T13:56:00;1.83;;;1.73;;
48685;SDS011;34485;51.536;3.816;2022-10-13T13:58:26;5.50;;;4.80;;
48685;SDS011;34485;51.536;3.816;2022-10-13T14:00:52;2.58;;;2.00;;
48685;SDS011;34485;51.536;3.816;2022-10-13T14:03:17;3.17;;;2.30;;
48685;SDS011;34485;51.536;3.816;2022-10-13T14:05:43;1.90;;;1.80;;
48685;SDS011;34485;51.536;3.816;2022-10-13T14:08:08;1.48;;;1.40;;
48685;SDS011;34485;51.536;3.816;2022-10-13T14:10:34;1.90;;;1.67;;
48685;SDS011;34485;51.536;3.816;2022-10-13T14:13:02;2.67;;;2.47;;
48685;SDS011;34485;51.536;3.816;2022-10-13T14:15:28;2.00;;;1.80;;
48685;SDS011;34485;51.536;3.816;2022-10-13T14:17:54;2.88;;;1.77;;
48685;SDS011;34485;51.536;3.816;2022-10-13T14:20:20;2.57;;;2.37;;
48685;SDS011;34485;51.536;3.816;2022-10-13T14:22:46;1.98;;;1.85;;
48685;SDS011;34485;51.536;3.816;2022-10-13T14:25:11;2.53;;;1.90;;
48685;SDS011;34485;51.536;3.816;2022-10-13T14:27:37;2.60;;;1.88;;
48685;SDS011;34485;51.536;3.816;2022-10-13T14:30:03;3.33;;;1.63;;
48685;SDS011;34485;51.536;3.816;2022-10-13T14:32:30;2.83;;;1.70;;
48685;SDS011;34485;51.536;3.816;2022-10-13T14:34:55;1.63;;;1.50;;
48685;SDS011;34485;51.536;3.816;2022-10-13T14:37:21;2.77;;;2.27;;
48685;SDS011;34485;51.536;3.816;2022-10-13T14:39:47;2.85;;;1.85;;
48685;SDS011;34485;51.536;3.816;2022-10-13T14:42:12;1.43;;;1.33;;
48685;SDS011;34485;51.536;3.816;2022-10-13T14:44:38;1.90;;;1.80;;
48685;SDS011;34485;51.536;3.816;2022-10-13T14:47:03;1.48;;;1.25;;
48685;SDS011;34485;51.536;3.816;2022-10-13T14:49:29;2.07;;;1.87;;
48685;SDS011;34485;51.536;3.816;2022-10-13T14:51:54;1.77;;;1.65;;
48685;SDS011;34485;51.536;3.816;2022-10-13T14:54:20;1.97;;;1.43;;
48685;SDS011;34485;51.536;3.816;2022-10-13T14:56:46;1.63;;;1.30;;
48685;SDS011;34485;51.536;3.816;2022-10-13T14:59:11;1.67;;;1.58;;
48685;SDS011;34485;51.536;3.816;2022-10-13T15:01:37;1.93;;;1.83;;
48685;SDS011;34485;51.536;3.816;2022-10-13T15:04:05;1.30;;;1.27;;
48685;SDS011;34485;51.536;3.816;2022-10-13T15:06:31;1.90;;;1.70;;
48685;SDS011;34485;51.536;3.816;2022-10-13T15:08:57;1.23;;;1.17;;
48685;SDS011;34485;51.536;3.816;2022-10-13T15:11:23;1.87;;;1.77;;
48685;SDS011;34485;51.536;3.816;2022-10-13T15:13:50;2.33;;;2.22;;
48685;SDS011;34485;51.536;3.816;2022-10-13T15:18:46;1.67;;;1.57;;
48685;SDS011;34485;51.536;3.816;2022-10-13T15:21:12;1.60;;;1.50;;
48685;SDS011;34485;51.536;3.816;2022-10-13T15:23:38;2.42;;;1.85;;
48685;SDS011;34485;51.536;3.816;2022-10-13T15:26:03;6.20;;;2.23;;
48685;SDS011;34485;51.536;3.816;2022-10-13T15:28:33;3.30;;;1.27;;
48685;SDS011;34485;51.536;3.816;2022-10-13T15:31:01;3.47;;;1.95;;
48685;SDS011;34485;51.536;3.816;2022-10-13T15:33:27;2.42;;;1.30;;
48685;SDS011;34485;51.536;3.816;2022-10-13T15:35:53;2.07;;;1.90;;
48685;SDS011;34485;51.536;3.816;2022-10-13T15:38:20;2.03;;;1.83;;
48685;SDS011;34485;51.536;3.816;2022-10-13T15:40:46;2.22;;;1.65;;
48685;SDS011;34485;51.536;3.816;2022-10-13T15:43:12;2.65;;;1.48;;
48685;SDS011;34485;51.536;3.816;2022-10-13T15:45:39;2.13;;;1.37;;
48685;SDS011;34485;51.536;3.816;2022-10-13T15:48:06;3.28;;;1.83;;
48685;SDS011;34485;51.536;3.816;2022-10-13T15:50:32;3.15;;;2.08;;
48685;SDS011;34485;51.536;3.816;2022-10-13T15:53:02;2.38;;;2.20;;
48685;SDS011;34485;51.536;3.816;2022-10-13T15:55:27;2.10;;;1.40;;
48685;SDS011;34485;51.536;3.816;2022-10-13T15:57:53;2.80;;;2.60;;
48685;SDS011;34485;51.536;3.816;2022-10-13T16:00:19;2.80;;;2.70;;
48685;SDS011;34485;51.536;3.816;2022-10-13T16:02:47;2.03;;;1.75;;
48685;SDS011;34485;51.536;3.816;2022-10-13T16:05:13;2.25;;;2.13;;
48685;SDS011;34485;51.536;3.816;2022-10-13T16:07:39;4.03;;;1.97;;
48685;SDS011;34485;51.536;3.816;2022-10-13T16:10:06;1.92;;;1.83;;
48685;SDS011;34485;51.536;3.816;2022-10-13T16:12:33;1.10;;;1.10;;
48685;SDS011;34485;51.536;3.816;2022-10-13T16:14:58;20.63;;;10.30;;
48685;SDS011;34485;51.536;3.816;2022-10-13T16:17:24;22.52;;;11.68;;
48685;SDS011;34485;51.536;3.816;2022-10-13T16:19:50;11.77;;;7.53;;
48685;SDS011;34485;51.536;3.816;2022-10-13T16:22:15;5.80;;;4.40;;
48685;SDS011;34485;51.536;3.816;2022-10-13T16:24:41;2.60;;;2.40;;
48685;SDS011;34485;51.536;3.816;2022-10-13T16:27:06;2.67;;;2.10;;
48685;SDS011;34485;51.536;3.816;2022-10-13T16:29:32;2.93;;;2.73;;
48685;SDS011;34485;51.536;3.816;2022-10-13T16:31:58;2.70;;;2.50;;
48685;SDS011;34485;51.536;3.816;2022-10-13T16:34:24;4.10;;;3.75;;
48685;SDS011;34485;51.536;3.816;2022-10-13T16:36:50;3.47;;;3.20;;
48685;SDS011;34485;51.536;3.816;2022-10-13T16:39:16;4.80;;;4.32;;
48685;SDS011;34485;51.536;3.816;2022-10-13T16:41:42;8.63;;;7.63;;
48685;SDS011;34485;51.536;3.816;2022-10-13T16:44:07;7.43;;;6.43;;